Share

Gold Beach, OR

Weather Hawk (KORGOLDB11) Elev 52 ft | 42.53 °N, 124.39 °W | Change Station
Active Advisory: High Surf Advisory

Current weather conditions updated 3 seconds ago

Haze
Haze
62.6 °F
Feels Like 62.6 °F
N
1.6
Wind Variable Wind from West
Gusts 3.1 mph
Sunrise 6:31 AM
Sunset 8:02 PM
Moon Waning Gibbous

Today is forecast to be Much Warmer than yesterday.

Pressure 30.03 in
Visibility 6.0 miles
Clouds Clear
Dew Point 51 °F
Humidity 65%
Rainfall 0.00 in
Snow Depth Not available.
UV 4 out of 16
Pollen 8.30 out of 12
Air Quality Not available.
Flu Activity Sporadic
METAR KBOK 181656Z AUTO 00000KT 6SM HZ CLR 12/09 A3002 RMK AO2 T01160088 SLP167

More Conditions Fewer Conditions

Pressure 30.03 in
Visibility 6.0 miles
Clouds Clear
Dew Point 51 °F
Humidity 65%
Rainfall 0.00 in
Snow Depth Not available.
UV 4 out of 16
Pollen 8.30 out of 12
Air Quality Not available.
Flu Activity Sporadic
METAR KBOK 181656Z AUTO 00000KT 6SM HZ CLR 12/09 A3002 RMK AO2 T01160088 SLP167

More Conditions Fewer Conditions

10-Day Weather Forecast

Almanac

Astronomy

Apr. 18, 2014 Rise Set
Actual Time 6:31 AM PDT 8:02 PM PDT
Civil Twilight 6:02 AM PDT 8:32 PM PDT
Nautical Twilight 5:26 AM PDT 9:08 PM PDT
Astronomical Twilight 4:48 AM PDT 9:46 PM PDT
Moon 11:56 PM PDT 8:56 AM PDT
Length of Visible Light 14h 30m
Length of Day
13h 31m
Tomorrow will be 2m 42s longer.
Waning Gibbous, 87% of the Moon is Illuminated
Today
Waning Gibbous
Apr 22
Last Quarter
Apr 29
New
May 6
First Quarter
May 14
Full

Today's Extremes

State Highs State Lows

Community

  • What's for Lunch?
    What's for Lunch?
  • SUNRISE THROUGH THE TREES.
    SUNRISE THROUGH THE TREES.
  • Dog Wood Blossoms
    Dog Wood Blossoms
  • Morning Light
    Morning Light
  • New Day
    New Day

WunderPhotos

Upload Photos

1,702,425 photos uploaded!

Nearby

Snow Depth

Station Depth Elevation
King Mountain 0 in 4000 ft
Big Red Mountain 11 in 6250 ft
Fish Lake 0 in 4665 ft
Billie Creek Divide 0 in 5300 ft
Cold Springs Camp 8 in 6100 ft

Coastal Water Temperatures

Place Temperature
Port Orford, OR 48.0 °F
Crescent City, CA 51.1 °F
Charleston, OR 51.1 °F

Earthquake Activity

City Distance Mag. Time & Date
Ferndale, California 135 miles 2.6 3:29 AM PDT
2014-04-14
Humboldt Hill, California 117 miles 2.8 4:45 PM PDT
2014-04-13
Ferndale, California 147 miles 3.1 9:12 PM PDT
2014-04-11
Minimum magnitude displayed is 2.5.

Nearby Weather Stations

Station Location Temp. Dew Point Humidity Wind Precip. Elev Updated Type
Weather Hawk, Gold Beach, OR 62.6 °F 51 °F 65% West  at  1.6 mph 0.00 in / hr 52 ft 10:27 AM PDT Rapid Fire
Gardner Ridge, Brookings, OR 53.2 °F 46 °F 77% NNE  at  2.0 mph 0.00 in / hr 1178 ft 10:16 AM PDT Normal
Carpenterville, Brookings, OR 61.6 °F 48 °F 61% SW  at  0.0 mph 0.00 in / hr 1926 ft 10:25 AM PDT Normal

Show More Stations Show Fewer Stations

What do you think?

We're not finished. Please let us know what you like, what you don't like, and what you are still missing.